arxmliv
arxmliv build tool
 
KWARC group
LaTeXML
About
   
 

Detailed info

Back to Homepage

List of missing_macros

No. Date Filename num_warningnum_errornum_xmargok_xmargnum_xmathok_xmathMissing macros
94001 2013-03-13 00:01:20 /0805/0805.1865 35740000[\bigcircle, \dottedline, \curve, \drawline, {turn}, \rTo].
94002 2013-03-13 00:00:33 /0805/0805.1884 010000[\diameter].
94003 2013-03-13 00:00:30 /0805/0805.1886 030000[\appendixpage, \verbatiminput, \addappheadtotoc].
94004 2013-03-13 00:00:00 /0805/0805.1871 280000[\includegraphics, \ShortTitle, \email, \FullConference, \speaker]; 1 missing file[PoS.cls].
94005 2013-03-12 23:59:59 /0805/0805.1841 910000[\citeauthoryear].
94006 2013-03-12 23:59:17 /0805/0805.1846 420000[\psfrag]; 1 missing file[marvosym.sty].
94007 2013-03-12 23:59:10 /0805/0805.1845 310000[\date].
94008 2013-03-12 23:59:08 /0805/0805.1839 2610000[\mathinner].
94009 2013-03-12 23:58:17 /0805/0805.1825 030000[\theappendix, \ocis, \address].
94010 2013-03-12 23:58:12 /0805/0805.1818 030000[\extrasenglish, \dateenglish, \captionsenglish].
94011 2013-03-12 23:58:07 /0805/0805.1768 6920000[\proof, \endproof].
94012 2013-03-12 23:57:50 /0805/0805.1806 12150000[Align, \xymatrix, \varobar, \ar]; 1 missing file[xy.sty].
94013 2013-03-12 23:57:29 /0805/0805.1797 540000[\extrasenglish, \geometry, \dateenglish, \captionsenglish].
94014 2013-03-12 23:57:24 /0805/0805.1793 1070000[Align, \xyoption, \xymatrix, \ar]; 1 missing file[xy.sty].
94015 2013-03-12 23:57:24 /0805/0805.1798 3490000[{psmatrix}, \endprooftree, \coqdockw, \coqdocid, Align, \coqdocindent, \prooftree, \justifies, \coqdoceol]; 1 missing file[coqdoc.sty].
94016 2013-03-12 23:57:06 /0805/0805.1801 150000[\sameaddress, \address, \email, \runningtitle, \etal]; 1 missing file[eas.cls].
94017 2013-03-12 23:56:57 /0805/0805.1803 060000[\PACSes, \TITLE, \BY, \from, \PACSit, \instlist].
94018 2013-03-12 23:56:49 /0805/0805.1787 0180000[{alpherate}, \bibauthoryear, \AmSTeX]; 1 missing file[llncsdoc.sty].
94019 2013-03-12 23:56:48 /0805/0805.1776 2910000[{comment}].
94020 2013-03-12 23:56:35 /0805/0805.1796 1110000[\psfrag].
94021 2013-03-12 23:56:20 /0805/0805.1769 1520000[{centering}].
94022 2013-03-12 23:56:17 /0805/0805.1763 220000[\spn, \vr].
94023 2013-03-12 23:56:07 /0805/0805.1738 38130000[\MR, \bib, \xymatrix, {biblist}, \rrbracket, \href, \citelist, Align, {bibsection}, \llbracket, \ar]; 2 missing files[remyrefs.sty, xy.sty].
94024 2013-03-12 23:55:50 /0805/0805.1752 1110000[\slashed].
94025 2013-03-12 23:54:58 /0805/0805.1742 4150000[{pf*}, {@proof}].
94026 2013-03-12 23:54:49 /0805/0805.1736 21390000[\yng, \mathds, \Yinterspace, \young].
94027 2013-03-12 23:54:26 /0805/0805.1744 710000[\dsum].
94028 2013-03-12 23:54:23 /0805/0805.1743 020000[\layoutstyle, \classification].
94029 2013-03-12 23:54:22 /0805/0805.1726 24200000[\xymatrix, \ar]; 1 missing file[xy.sty].
94030 2013-03-12 23:54:20 /0805/0805.1732 470000[\nicefrac, {pspicture}, \uput, \psline, \psframe]; 2 missing files[pst-all.sty, astrojournals.sty].
94031 2013-03-12 23:53:56 /0805/0805.1730 910000[\HI].
94032 2013-03-12 23:53:37 /0805/0805.1688 6140000[Align, \xymatrix, \ar]; 1 missing file[xy.sty].
94033 2013-03-12 23:53:26 /0805/0805.1706 410000[{AMS}].
94034 2013-03-12 23:53:16 /0805/0805.1724 030000[\extrasenglish, \dateenglish, \captionsenglish].
94035 2013-03-12 23:53:13 /0805/0805.1722 1290000[\mathbb, \tbl, \refcite, \epsfbox, \abstracts, \boldsymbol, \toprule, \epsfxsize]; 1 missing file[ws.sty].
94036 2013-03-12 23:53:01 /0805/0805.1710 2310000[\mathbb]; 1 missing file[ijamas.cls].
94037 2013-03-12 23:52:54 /0805/0805.1707 170000[\affil, \reference, {references}, \ga, \acknowledgments, \la]; 1 missing file[macroaaa-eng.sty].
94038 2013-03-12 23:52:11 /0805/0805.1696 1630000[\citeyear, \citeaffixed, \citeasnoun].
94039 2013-03-12 23:52:06 /0805/0805.1683 310000[\psfrag].
94040 2013-03-12 23:51:50 /0805/0805.1700 050000[\psfig, \bodymatter, \refcite, \keywords]; 1 missing file[ws.sty].
94041 2013-03-12 23:51:43 /0805/0805.1687 5130000[\Abstract, \ArticleName, \ShortArticleName, \FirstPageHeading, \Address, \pdfbookmark, \LastPageEnding, \Classification, \ArticleDates, \Author, \Email, \AuthorNameForHeading, \Keywords].
94042 2013-03-12 23:51:41 /0805/0805.1679 1090000[\node, \arrow, {diagram}]; 1 missing file[xy.sty].
94043 2013-03-12 23:51:36 /0805/0805.1677 10690000[\ArrowArc, \Photon, \DashArrowLine, \ArrowLine, \Text, \SetWidth, \DashArrowArcn, \PhotonArc, \DashLine].
94044 2013-03-12 23:51:03 /0805/0805.1672 440000[\\, \title, \and, \author].
94045 2013-03-12 23:50:42 /0805/0805.1629 530000[{sidewaystable}]; 1 missing file[colordvi.sty].
94046 2013-03-12 23:50:39 /0805/0805.1662 120000[{keywords}, \IEEEmembership]; 1 missing file[IEEEtran.cls].
94047 2013-03-12 23:50:28 /0805/0805.1659 290000[{acknowledgments}, \editors, \affiliation, \keywords, \volume, \firstsection, \jname, \pubyear, \etal]; 1 missing file[iaus.cls].
94048 2013-03-12 23:50:19 /0805/0805.1668 010000[\unit].
94049 2013-03-12 23:50:14 /0805/0805.1621 3140000[\extrasenglish, \noextrasenglish, \dateenglish, \captionsenglish].
94050 2013-03-12 23:50:07 /0805/0805.1658 3210000[\diam, \qedhere, \eps, \wt, \address, \email, \subjclass, \supsetneq, {remark}, \Ch, \tag, \mathbb, \re, \keywords, \swapnumbers, {subproof}, {proof}, \cl, \qedoutsideproof]; 2 missing files[mymathart.cls, mymathmacros.sty].
94051 2013-03-12 23:50:03 /0805/0805.1647 850000[{theacknowledgments}, \layoutstyle, \midrule, \bottomrule, \classification].
94052 2013-03-12 23:49:49 /0805/0805.1605 1630000[\midrule, \toprule, \bottomrule].
94053 2013-03-12 23:49:37 /0805/0805.1639 150000[\tablefont, \catchline, \mathbb, \newcounter]; 1 missing file[ws.sty].
94054 2013-03-12 23:49:35 /0805/0805.1636 110000[\linenumbers].
94055 2013-03-12 23:48:38 /0805/0805.1613 2920000[\slashed, \@ignoretrue].
94056 2013-03-12 23:48:28 /0805/0805.1630 6220000[\endxy, \dir, \crv, \xy]; 1 missing file[xy.sty].
94057 2013-03-12 23:48:22 /0805/0805.1609 15730000[\dTo, Align, \lTo, \rTo, {diagram}].
94058 2013-03-12 23:48:18 /0805/0805.1607 1410000[\geometry].
94059 2013-03-12 23:47:50 /0805/0805.1619 020000[{sidewaystable}].
94060 2013-03-12 23:47:20 /0805/0805.1580 2310000[{comment}].
94061 2013-03-12 23:47:06 /0805/0805.1593 2020000[{IEEEkeywords}, \IEEEspecialpapernotice]; 1 missing file[IEEEtran.cls].
94062 2013-03-12 23:47:00 /0805/0805.1573 12410000[\arXivid].
94063 2013-03-12 23:46:54 /0805/0805.1590 910000[\citen].
94064 2013-03-12 23:45:55 /0805/0805.1582 190000[{acknowledgments}, \affil, \citep, {article}, \linenumbers, \authoraddr, \authorrunninghead, \setkeys, \titlerunninghead]; 1 missing file[agu2001.cls].
94065 2013-03-12 23:45:38 /0805/0805.1560 1110000[{comment}].
94066 2013-03-12 23:45:14 /0805/0805.1559 1370000[\sodauthor, \rauthor, \address, \sodtitle, \lat, \PACS, \rtitle].
94067 2013-03-12 23:45:09 /0805/0805.1576 520000[\rang, \lang].
94068 2013-03-12 23:44:56 /0805/0805.1556 1610000[\marginsize].
94069 2013-03-12 23:44:50 /0805/0805.1567 1560000[{acknowledgments}, \pacs, \inst, \shortauthor, \institute, \etal]; 1 missing file[epl2.cls].
94070 2013-03-12 23:44:24 /0805/0805.1529 20210000[\subject, \underset, \address, \keyword, \rightleftarrows, \email, \Z, \operatorname, \givenname, \text, \ar, \surname, \mathbb, \operatornamewithlimits, \theoremstyle, \xymatrix, \numberwithin, Align, {asciiabstract}, {proof}]; 2 missing files[xy.sty, g
94071 2013-03-12 23:44:13 /0805/0805.1478 18910000[\pdfstringdefDisableCommands].
94072 2013-03-12 23:43:28 /0805/0805.1530 640000[\includegraphics, {keywords}, \resizebox, \articletype]; 1 missing file[tPHM2e.cls].
94073 2013-03-12 23:43:18 /0805/0805.1488 121140000[\nicefrac, \vcentcolon]; 3 missing files[mathtools.sty, xy.sty, microtype.sty].
94074 2013-03-12 23:42:45 /0805/0805.1527 510000[@ ].
94075 2013-03-12 23:42:31 /0805/0805.1510 110000[\theappendix].
94076 2013-03-12 23:42:29 /0805/0805.1508 0530000[Align, \citep]; 1 missing file[natlib.sty].
94077 2013-03-12 23:41:56 /0805/0805.1501 710000[\geometry].
94078 2013-03-12 23:41:46 /0805/0805.1495 24120000[Align, \xymatrix, \ar]; 9 missing files[xycurve.sty, xymatrix.sty, xyline.sty, xyarrow.sty, xycmtip.sty, xycolor.sty, xyrotate.sty, xyframe.sty, xygraph.sty].
94079 2013-03-12 23:41:39 /0805/0805.1485 620000[\authorblockN, \authorblockA]; 1 missing file[IEEEtran.cls].
94080 2013-03-12 23:41:37 /0805/0805.1504 110000[\nolinenumbers].
94081 2013-03-12 23:41:26 /0805/0805.1486 4170000[\affil, \session, \citeyear, \apj, \citep, \shortauthor, \apss, \aap, \keywords, \mnras, \apjs, {sidewaystable*}, \shorttitle, \citeauthor, \acknowledgements]; 1 missing file[xrb2007.sty].
94082 2013-03-12 23:41:20 /0805/0805.1489 110000[\boxput].
94083 2013-03-12 23:41:15 /0805/0805.1464 302300000[\UnaryInfC, \citeyear, \noLine, \kernHyps, {acks}, {bottomstuff}, \RightLabel, \insertBetweenHyps, \url, \citeN, \LeftLabel, \ar, \TrinaryInfC, \oldterms, {prooftree}, {received}, \xymatrix, \AxiomC, \keywords, {definition}, Align, \Hy@breaklinkstrue, \c
94084 2013-03-12 23:41:13 /0805/0805.1480 1750000[\kword, \abst, \inst, \recdate, \citen].
94085 2013-03-12 23:41:02 /0805/0805.1491 5190000[\apj, \pasj, \aaps, \apjl, \aap, \procspie, \Accepted, \email, \KeyWords, \draft, \aj, \altaffilmark, \Received, \mnras, \apjs, \FigureFile, \altaffiltext, \citet, \SetRunningHead]; 1 missing file[pasj00.cls].
94086 2013-03-12 23:41:01 /0805/0805.1458 5920000[{comment}].
94087 2013-03-12 23:40:41 /0805/0805.1459 8050000[Align, {rotate}, \xymatrix, \ar]; 1 missing file[xy.sty].
94088 2013-03-12 23:40:41 /0805/0805.1481 5310000[\dbigcup].
94089 2013-03-12 23:40:38 /0805/0805.1411 8570000[Align, \xymatrix, \node, \arrow, \ar, {diagram}]; 1 missing file[xy.sty].
94090 2013-03-12 23:40:32 /0805/0805.1467 970000[\endxy, Align, \xymatrix, \xy, \ar]; 1 missing file[xy.sty].
94091 2013-03-12 23:40:29 /0805/0805.1473 31110000[{lemma}, {theorem}, {algorithm}, \keywords, {definition}, \address, \email, {proof}, {proposition}]; 2 missing files[mdwtab.sty, stacs.cls].
94092 2013-03-12 23:40:28 /0805/0805.1425 9240000[Align, \xymatrix, \ar]; 1 missing file[xy.sty].
94093 2013-03-12 23:39:55 /0805/0805.1470 4120000[\citeauthoryear, \surname, \institute, \runningtitle, {opening}, {article}, {acks}, \keywords, \sep, \runningauthor, \inlinecite]; 2 missing files[spr-sola-addons.sty, SolarPhysics.cls].
94094 2013-03-12 23:39:43 /0805/0805.1443 87110000[{fmffile}, \Braket, \fmf, \@end@institute, \Set, \fmfdot, \nicefrac, \theendnotes, {fmfgraph*}, \fmfleft, \fmfright].
94095 2013-03-12 23:39:01 /0805/0805.1444 210000[\al@[].
94096 2013-03-12 23:38:59 /0805/0805.1439 34130000[\rTo, \xy, \endxy, \xyoption, Align, \pp, \newsymbol, \ar, {diagram}]; 3 missing files[bibentry.sty, diagrams, xy.sty].
94097 2013-03-12 23:38:46 /0805/0805.1450 1340000[\kword, \abst, \inst, \recdate].
94098 2013-03-12 23:38:37 /0805/0805.1414 2250000[Align, \SelectTips, \xymatrix, \ar]; 1 missing file[xy.sty].
94099 2013-03-12 23:38:23 /0805/0805.1442 2780000[{keywords}, \dateenglish, \extrasenglish, {biographynophoto}, {biography}, \geometry, {proof}, \captionsenglish]; 1 missing file[IEEEtran.cls].
94100 2013-03-12 23:38:11 /0805/0805.1437 2030000[\authorblockN, \authorrefmark, \authorblockA]; 1 missing file[IEEEtran.cls].
94101 2013-03-12 23:38:04 /0805/0805.1440 4550000[\xyoption, \pp, \newsymbol]; 2 missing files[diagrams, xy.sty].
94102 2013-03-12 23:36:55 /0805/0805.1401 16130000[{@proof}]; 1 missing file[pdflscape.sty].
94103 2013-03-12 23:36:36 /0805/0805.1429 0140000[\affil, \apj, \aj, \apjl, \plotfiddle, \aap, \nat, \mnras, \plotone, \pasp, \acknowledgements]; 1 missing file[asp2006.sty].
94104 2013-03-12 23:36:16 /0805/0805.1418 090000[{tablenotes}, \extrasenglish, \tnote, {threeparttable}, \dateenglish, \captionsenglish]; 1 missing file[threeparttable.sty].
94105 2013-03-12 23:36:13 /0805/0805.1390 54310000[\ELSE, {pseudocode}, \PROCEDURE, \RETURN, \IF, \BEGIN, \CTHEN, \GETS, \END, \THEN, \CALL, \ENDPROCEDURE].
94106 2013-03-12 23:36:07 /0805/0805.1368 3010000[\displaylimits].
94107 2013-03-12 23:35:43 /0805/0805.1379 1710000[\unit].
94108 2013-03-12 23:35:40 /0805/0805.1391 420000[{algorithm}].
94109 2013-03-12 23:35:29 /0805/0805.1359 14330000[\psfrag].
94110 2013-03-12 23:35:18 /0805/0805.1377 9160000[\inst, \accepted, \Month, \publonline, \email, \titlerunning, \fnmsep, \authorrunning, \received, \Issue, \Yearsubmission, \institute, \Yearpublication, \Volume, \Pagespan, \acknowledgements].
94111 2013-03-12 23:35:16 /0805/0805.1382 270000[\Text, \Line, \GCirc, \SetWidth, \rText, \LongArrow, \DashLine].
94112 2013-03-12 23:35:03 /0805/0805.1378 1100000[\editors, \affiliation, \discuss, \keywords, \volume, \firstsection, {discussion}, \pagerange, \jname, \pubyear]; 1 missing file[iaus.cls].
94113 2013-03-12 23:34:49 /0805/0805.1383 360000[\includegraphics, \pacs, \shortauthor, \institute, \acknowledgments, \etal]; 1 missing file[epl2.cls].
94114 2013-03-12 23:34:39 /0805/0805.1365 010000[\na].
94115 2013-03-12 23:34:36 /0805/0805.1367 15120000[{addendum}, {methods}, {affiliations}]; 1 missing file[nature.cls].
94116 2013-03-12 23:34:35 /0805/0805.1357 1120000[\theappendix, \psfrag].
94117 2013-03-12 23:34:15 /0805/0805.1366 010000[\citeauthoryear].
94118 2013-03-12 23:34:05 /0805/0805.1360 1470000[\eqref, \layoutstyle, \classification].
94119 2013-03-12 23:33:52 /0805/0805.1374 020000[\keywords]; 1 missing file[mashs08.sty].
94120 2013-03-12 23:33:49 /0805/0805.1362 210000[\theappendix].
94121 2013-03-12 23:33:43 /0805/0805.1242 5550000[\theappendix, \apprge, \@title, \apprle].
94122 2013-03-12 23:33:07 /0805/0805.1335 410000[\theappendix].
94123 2013-03-12 23:32:52 /0805/0805.1327 10210000[{proof}]; 1 missing file[IEEEtran.cls].
94124 2013-03-12 23:32:29 /0805/0805.1323 4140000[Align, \xymatrix, \ar]; 1 missing file[xy.sty].
94125 2013-03-12 23:32:00 /0805/0805.1324 130000[\address, \pacs]; 1 missing file[pmart.sty].
94126 2013-03-12 23:30:56 /0805/0805.1322 810000[\mathds].
94127 2013-03-12 23:29:54 /0805/0805.1292 18110000[\toc@uthor, \@thanks, \@topnum, \@title, \if@runhead, \protected@xdef, \@maketitle].
94128 2013-03-12 23:29:20 /0805/0805.1275 180000[\inst, \mailto, \institute, \keywords, \email, \volnopage, \titlerunning, \authorrunning]; 1 missing file[chjaa.cls].
94129 2013-03-12 23:29:04 /0805/0805.1265 15860000[\mathds, \midrule, \toprule, \xRightarrow, \bottomrule]; 1 missing file[mathtools.sty].
94130 2013-03-12 23:29:03 /0805/0805.1283 010000[\longtabL].
94131 2013-03-12 23:28:59 /0805/0805.1234 5630000[Align, \xymatrix, \ar].
94132 2013-03-12 23:28:38 /0805/0805.1266 020000[\pdfpageheight, \pdfpagewidth].
94133 2013-03-12 23:28:12 /0805/0805.1258 150000[{pspicture}, \rput, \psline].
94134 2013-03-12 23:27:40 /0805/0805.1261 2810000[\theappendix].
94135 2013-03-12 23:27:21 /0805/0805.1262 1260000[\address, \ninept, \sthanks, \psfrag, {psfrags}, \name].
94136 2013-03-12 23:27:18 /0805/0805.1197 7610000[\mathinner].
94137 2013-03-12 23:27:12 /0805/0805.1244 9100000[\spacing, {addendum}, {affiliations}]; 1 missing file[naturefig.cls].
94138 2013-03-12 23:26:50 /0805/0805.1238 710000[\theappendix].
94139 2013-03-12 23:26:33 /0805/0805.1226 2950000[\authorblockN, \appendices, {proof}]; 1 missing file[IEEEtran.cls].
94140 2013-03-12 23:26:28 /0805/0805.1194 70110000[{comment}].
94141 2013-03-12 23:25:43 /0805/0805.1225 150000[\opencircle, \opendiamond, \fullcircle, \fullsquare, \ead].
94142 2013-03-12 23:25:31 /0805/0805.1217 3320000[\smaller, \psfrag].
94143 2013-03-12 23:25:17 /0805/0805.1219 210000[\midrule].
94144 2013-03-12 23:24:55 /0805/0805.1209 160000[\extrasenglish, {keywords}, {proof}, \dateenglish, \captionsenglish]; 2 missing files[IEEEtran.cls, esint.sty].
94145 2013-03-12 23:24:41 /0805/0805.1193 2080000[\GCirc, \Text, \Vertex, \ArrowLine, \Line, \GlueArc, \LongArrow, \Gluon].
94146 2013-03-12 23:23:16 /0805/0805.1163 6190000[{centering}].
94147 2013-03-12 23:23:00 /0805/0805.1162 290000[\ccode, \catchline, {history}, \cdash, \revised, \refcite, \keywords, \received]; 1 missing file[ws.sty].
94148 2013-03-12 23:22:45 /0805/0805.1165 050000[{sideways}].
94149 2013-03-12 23:22:34 /0805/0805.1144 24340000[{pspicture}, \psset, \midrule, \rnode, \addlinespace, \dateline, \cnode, \ncline, \defaultaddspace, \psfrag, \rput, \toprule, \bottomrule]; 2 missing files[pst-all.sty, e-jc.sty].
94150 2013-03-12 23:22:10 /0805/0805.1152 030000[\extrasenglish, \dateenglish, \captionsenglish].
94151 2013-03-12 23:22:09 /0805/0805.1151 010000[\KEY].
94152 2013-03-12 23:21:45 /0805/0805.1142 110000[\theappendix].
94153 2013-03-12 23:21:16 /0805/0805.1130 3620000[\psfrag].
94154 2013-03-12 23:20:51 /0805/0805.1132 680000[\pacs, \inst, \shortauthor, \institute, \onefigure, \acknowledgments, \shorttitle, \etal]; 1 missing file[epl2.cls].
94155 2013-03-12 23:20:40 /0805/0805.1139 170000[\subref].
94156 2013-03-12 23:20:39 /0805/0805.1135 890000[\Ast, \pacs, \institute, \includegraphics, \published, \titlerunning, \mail, \authorrunning, \received]; 1 missing file[wiley2sp.cls].
94157 2013-03-12 23:20:13 /0805/0805.1120 310000[\listfiles].
94158 2013-03-12 23:19:47 /0805/0805.1127 1140000[\affil, \accepted, \correspondence, \runningtitle, \includegraphics, \published, \firstpage, \runningauthor, \citet, \revised, {acknowledgements}, \introduction, \received, \pubdiscuss]; 1 missing file[copernicus.cls].
94159 2013-03-12 23:19:44 /0805/0805.1129 640000[\PACS]; 1 missing file[size11.clo.sty].
94160 2013-03-12 23:19:27 /0805/0805.1100 1240000[\drawvector, \drawdashline, \drawcenteredtext, \drawframebox].
94161 2013-03-12 23:19:22 /0805/0805.1097 13720000[\doi, \ifprodtf, \notequal, \volume, \theappendix, {definition*}, \equalcolon, \boldit, \iffontfound, \ns, \oldleq, \oldle, Align, \greatermuch, \oldgeq, {subequations}, \pagerange, \mathsfbi, \textsfi, \mathsfi, \qsmall, \lessmuch, \indexsize, {therefer
94162 2013-03-12 23:19:20 /0805/0805.1092 4950000[{comment}, {AMS}, {proof}, \supp]; 1 missing file[sidecap.sty].
94163 2013-03-12 23:18:54 /0805/0805.1089 110000[\theappendix].
94164 2013-03-12 23:18:29 /0805/0805.1088 840000[\authorblockN, \authorblockA, \IEEEpeerreviewmaketitle, {proof}]; 1 missing file[IEEEtran.cls].
94165 2013-03-12 23:18:08 /0805/0805.1043 114270000[{dedication}, \campus, \field, \degreeyear, \numberofmembers, \thechapter, \degreesemester, \ar, {acknowledgements}, \copyrightpage, \xymatrix, \othermembers, \prevdegrees, Align, \approvalpage, \chair, \@currentID, \txt, {frontmatter}, \degree]; 1 missi
94166 2013-03-12 23:17:53 /0805/0805.1071 77320000[{algorithm}, \EndFor, \Comment, \EndWhile, \While, {algorithmic}, \If, \For, {comment}, \State, \Return, \EndIf].
94167 2013-03-12 23:17:50 /0805/0805.1079 040000[\citeyearNP, \citeNP, \citeN]; 1 missing file[xchicago.sty].
94168 2013-03-12 23:17:15 /0805/0805.1035 92180000[Align, \xymatrix, \ar]; 1 missing file[xy.sty].
94169 2013-03-12 23:16:58 /0805/0805.1070 40150000[\smaller].
94170 2013-03-12 23:15:56 /0805/0805.1060 1510000[{comment}].
94171 2013-03-12 23:15:00 /0805/0805.1013 39200000[\Abstract, \preprint, Align, \oneaddress, \psfrag, \rTo, {diagram}]; 1 missing file[utarticle.cls].
94172 2013-03-12 23:14:39 /0805/0805.1047 1410000[\ls, \iffontfound, \doi, \affiliation, \ns, \ifprodtf, {thereferences}, \volume, \pagerange, \checkfont, \newdefinition, \pubyear]; 1 missing file[jpp.cls].
94173 2013-03-12 23:14:19 /0805/0805.1034 3850000[{SCfigure}]; 1 missing file[sidecap.sty].
94174 2013-03-12 23:14:15 /0805/0805.1050 1310000[\affil, \apj, \citep, \aaps, \aap, \sun, \mnras, \ion, \citet]; 1 missing file[asp2006.sty].
94175 2013-03-12 23:13:54 /0805/0805.1018 34370000[Align, \xymatrix, \hole, \ar]; 1 missing file[xy.sty].
94176 2013-03-12 23:13:12 /0805/0805.1031 2420000[\@end@institute]; 1 missing file[type1cm.sty].
94177 2013-03-12 23:13:11 /0805/0805.1006 7840000[Align, \xymatrix, \ar]; 1 missing file[xy.sty].
94178 2013-03-12 23:13:05 /0805/0805.1009 35160000[Align, \xymatrix, \ar].
94179 2013-03-12 23:12:36 /0805/0805.1030 690000[{algorithm}, \SetKwInOut, \While, \Output, \SetKwData, \BlankLine, \SetKwFunction, \Input].
94180 2013-03-12 23:12:02 /0805/0805.1020 5250000[\xymatrix, \ar]; 10 missing files[xycurve.sty, xymatrix.sty, xyline.sty, xyarrow.sty, xycmtip.sty, xycolor.sty, xyrotate.sty, xy.sty, xyframe.sty, xygraph.sty].
94181 2013-03-12 23:12:01 /0805/0805.0984 17130000[\Line, \ArrowArc, \Photon, \SetColor, \ArrowLine, \Text, \Vertex, \CCirc, \LongArrow, \DashLine]; 1 missing file[letterspace.sty].
94182 2013-03-12 23:11:30 /0805/0805.1022 080000[\includegraphics, \apl, \ocis, \address, \opex, \nat, \prl]; 1 missing file[osajnl2.sty].
94183 2013-03-12 23:11:23 /0805/0805.0965 3650000[Align, \SelectTips, \xymatrix, \ar]; 1 missing file[xy.sty].
94184 2013-03-12 23:11:22 /0805/0805.0829 156670000[\cyrd, \CYRE, \CYRERY, \CYRB, \cyrerev, \CYRU, \cyrk, \cyryo, \cyro, \cyrz, \CYRSHCH, \cyrch, \bbl@allowhyphens, \CYRK, \cyrsh, \CYRD, \cyrf, \cyrg, \cyrs, \CYRZH, \cyrshch, \CYRP, \CYRH, \cyrery, \CYRF, \CYRG, \cyrc, \CYRO, \CYRYU, \cyrishrt, \textnumer
94185 2013-03-12 23:11:19 /0805/0805.0967 27110000[\psfrag].
94186 2013-03-12 23:11:17 /0805/0805.0987 2520000[\mathds, \geometry].
94187 2013-03-12 23:11:05 /0805/0805.0995 1510000[\@end@institute].
94188 2013-03-12 23:10:21 /0805/0805.1001 740000[\al@[, \al@ lip-sha2000].
94189 2013-03-12 23:10:18 /0805/0805.0997 640000[{theacknowledgments}, \layoutstyle, \classification]; 1 missing file[{aipcheck}].
94190 2013-03-12 23:09:55 /0805/0805.0986 1710000[\mathds].
94191 2013-03-12 23:09:43 /0805/0805.0989 1250000[\kword, \abst, \inst, \recdate, \citen].
94192 2013-03-12 23:09:33 /0805/0805.0973 17350000[\Pproton, \Ptop, \invfb, \mA, \PHiggsheavyzero, \PHiggslightzero, \mg, \HepProcess, \Pstrange, \msur, \Pphoton, \TeV, \Pcharm, \Pbottom, \PHiggspszero, \APtop, \tb, \Phz, \Pgluon, \PB, \msq, \msdr, \picobarn, \APcharm, \mH, \APstrange, \msdl, \APbottom,
94193 2013-03-12 23:08:57 /0805/0805.0977 280000[\apjs, \mnras, \apj, \aj, \@end@institute, \pasj, \aap]; 1 missing file[journals.sty].
94194 2013-03-12 23:08:39 /0805/0805.0980 010000[\@end@institute].
94195 2013-03-12 23:08:36 /0805/0805.0971 2710000[\slashed].
94196 2013-03-12 23:08:26 /0805/0805.0962 030000[\extrasenglish, \dateenglish, \captionsenglish].
94197 2013-03-12 23:08:21 /0805/0805.0954 16020000[\For, {algorithm2e}].
94198 2013-03-12 23:08:08 /0805/0805.0961 510000[\theappendix].
94199 2013-03-12 23:07:37 /0805/0805.0958 620000[\theappendix, \onlfig].
94200 2013-03-12 23:07:26 /0805/0805.0878 7930000[{AMS}].
<<< >>>

[0] [200] [400] [600] [800] [1000] [1200] [1400] [1600] [1800] [2000] [2200] [2400] [2600] [2800] [3000] [3200] [3400] [3600] [3800] [4000] [4200] [4400] [4600] [4800] [5000] [5200] [5400] [5600] [5800] [6000] [6200] [6400] [6600] [6800] [7000] [7200] [7400] [7600] [7800] [8000] [8200] [8400] [8600] [8800] [9000] [9200] [9400] [9600] [9800] [10000] [10200] [10400] [10600] [10800] [11000] [11200] [11400] [11600] [11800] [12000] [12200] [12400] [12600] [12800] [13000] [13200] [13400] [13600] [13800] [14000] [14200] [14400] [14600] [14800] [15000] [15200] [15400] [15600] [15800] [16000] [16200] [16400] [16600] [16800] [17000] [17200] [17400] [17600] [17800] [18000] [18200] [18400] [18600] [18800] [19000] [19200] [19400] [19600] [19800] [20000] [20200] [20400] [20600] [20800] [21000] [21200] [21400] [21600] [21800] [22000] [22200] [22400] [22600] [22800] [23000] [23200] [23400] [23600] [23800] [24000] [24200] [24400] [24600] [24800] [25000] [25200] [25400] [25600] [25800] [26000] [26200] [26400] [26600] [26800] [27000] [27200] [27400] [27600] [27800] [28000] [28200] [28400] [28600] [28800] [29000] [29200] [29400] [29600] [29800] [30000] [30200] [30400] [30600] [30800] [31000] [31200] [31400] [31600] [31800] [32000] [32200] [32400] [32600] [32800] [33000] [33200] [33400] [33600] [33800] [34000] [34200] [34400] [34600] [34800] [35000] [35200] [35400] [35600] [35800] [36000] [36200] [36400] [36600] [36800] [37000] [37200] [37400] [37600] [37800] [38000] [38200] [38400] [38600] [38800] [39000] [39200] [39400] [39600] [39800] [40000] [40200] [40400] [40600] [40800] [41000] [41200] [41400] [41600] [41800] [42000] [42200] [42400] [42600] [42800] [43000] [43200] [43400] [43600] [43800] [44000] [44200] [44400] [44600] [44800] [45000] [45200] [45400] [45600] [45800] [46000] [46200] [46400] [46600] [46800] [47000] [47200] [47400] [47600] [47800] [48000] [48200] [48400] [48600] [48800] [49000] [49200] [49400] [49600] [49800] [50000] [50200] [50400] [50600] [50800] [51000] [51200] [51400] [51600] [51800] [52000] [52200] [52400] [52600] [52800] [53000] [53200] [53400] [53600] [53800] [54000] [54200] [54400] [54600] [54800] [55000] [55200] [55400] [55600] [55800] [56000] [56200] [56400] [56600] [56800] [57000] [57200] [57400] [57600] [57800] [58000] [58200] [58400] [58600] [58800] [59000] [59200] [59400] [59600] [59800] [60000] [60200] [60400] [60600] [60800] [61000] [61200] [61400] [61600] [61800] [62000] [62200] [62400] [62600] [62800] [63000] [63200] [63400] [63600] [63800] [64000] [64200] [64400] [64600] [64800] [65000] [65200] [65400] [65600] [65800] [66000] [66200] [66400] [66600] [66800] [67000] [67200] [67400] [67600] [67800] [68000] [68200] [68400] [68600] [68800] [69000] [69200] [69400] [69600] [69800] [70000] [70200] [70400] [70600] [70800] [71000] [71200] [71400] [71600] [71800] [72000] [72200] [72400] [72600] [72800] [73000] [73200] [73400] [73600] [73800] [74000] [74200] [74400] [74600] [74800] [75000] [75200] [75400] [75600] [75800] [76000] [76200] [76400] [76600] [76800] [77000] [77200] [77400] [77600] [77800] [78000] [78200] [78400] [78600] [78800] [79000] [79200] [79400] [79600] [79800] [80000] [80200] [80400] [80600] [80800] [81000] [81200] [81400] [81600] [81800] [82000] [82200] [82400] [82600] [82800] [83000] [83200] [83400] [83600] [83800] [84000] [84200] [84400] [84600] [84800] [85000] [85200] [85400] [85600] [85800] [86000] [86200] [86400] [86600] [86800] [87000] [87200] [87400] [87600] [87800] [88000] [88200] [88400] [88600] [88800] [89000] [89200] [89400] [89600] [89800] [90000] [90200] [90400] [90600] [90800] [91000] [91200] [91400] [91600] [91800] [92000] [92200] [92400] [92600] [92800] [93000] [93200] [93400] [93600] [93800] [94000] [94200] [94400] [94600] [94800] [95000] [95200] [95400] [95600] [95800] [96000] [96200] [96400] [96600] [96800] [97000] [97200] [97400] [97600] [97800] [98000] [98200] [98400] [98600] [98800] [99000] [99200] [99400] [99600] [99800] [100000] [100200] [100400] [100600] [100800] [101000] [101200] [101400] [101600] [101800] [102000] [102200] [102400] [102600] [102800] [103000] [103200] [103400] [103600] [103800] [104000] [104200] [104400] [104600] [104800] [105000] [105200] [105400] [105600] [105800] [106000] [106200] [106400] [106600] [106800] [107000] [107200] [107400] [107600] [107800] [108000] [108200] [108400] [108600] [108800] [109000] [109200] [109400] [109600] [109800] [110000] [110200] [110400] [110600] [110800] [111000] [111200] [111400] [111600] [111800] [112000] [112200] [112400] [112600] [112800] [113000] [113200] [113400] [113600] [113800] [114000] [114200] [114400] [114600] [114800] [115000] [115200] [115400] [115600] [115800] [116000] [116200] [116400] [116600] [116800] [117000] [117200] [117400] [117600] [117800] [118000] [118200] [118400] [118600] [118800] [119000] [119200] [119400] [119600] [119800] [120000] [120200] [120400] [120600] [120800] [121000] [121200] [121400] [121600] [121800] [122000] [122200] [122400] [122600] [122800] [123000] [123200] [123400] [123600] [123800] [124000] [124200] [124400] [124600] [124800] [125000] [125200] [125400] [125600] [125800] [126000] [126200] [126400] [126600] [126800] [127000] [127200] [127400] [127600] [127800] [128000] [128200] [128400] [128600] [128800] [129000] [129200] [129400] [129600] [129800] [130000] [130200] [130400] [130600] [130800] [131000] [131200] [131400] [131600] [131800] [132000] [132200] [132400] [132600] [132800] [133000] [133200] [133400] [133600] [133800] [134000] [134200] [134400] [134600] [134800] [135000] [135200] [135400] [135600] [135800] [136000] [136200] [136400] [136600] [136800] [137000] [137200] [137400] [137600] [137800] [138000] [138200] [138400] [138600] [138800] [139000] [139200] [139400] [139600] [139800] [140000] [140200] [140400] [140600] [140800] [141000] [141200] [141400] [141600] [141800] [142000] [142200] [142400] [142600] [142800] [143000] [143200] [143400] [143600] [143800] [144000] [144200] [144400] [144600] [144800] [145000] [145200] [145400] [145600] [145800] [146000] [146200] [146400] [146600] [146800] [147000] [147200] [147400] [147600] [147800] [148000] [148200] [148400] [148600] [148800] [149000] [149200] [149400] [149600] [149800] [150000] [150200] [150400] [150600] [150800] [151000] [151200] [151400] [151600] [151800] [152000] [152200] [152400] [152600] [152800] [153000] [153200] [153400] [153600] [153800] [154000] [154200] [154400] [154600] [154800] [155000] [155200] [155400] [155600] [155800] [156000] [156200] [156400] [156600] [156800] [157000] [157200] [157400] [157600] [157800] [158000] [158200] [158400] [158600] [158800] [159000] [159200] [159400] [159600] [159800] [160000] [160200] [160400] [160600] [160800] [161000] [161200] [161400] [161600] [161800] [162000] [162200] [162400] [162600] [162800] [163000] [163200] [163400] [163600] [163800] [164000] [164200] [164400] [164600]
 
  The service has been written by
Heinrich Stamerjohanns